Time;durP1;ratioP1;P1;durP2;ratioP2;P2;SDS_P1;SDS_P2;PMS_P1;PMS_P2;Temp;Humidity;BMP_temperature;BMP_pressure;BME280_temperature;BME280_humidity;BME280_pressure;Samples;Min_cycle;Max_cycle;Signal;HPM_P1;HPM_P2
2023/11/28 00:00:09;;;;;;;0.63;0.60;;;7.00;99.90;;;;;;4949957;29;20055;-78
2023/11/28 00:02:35;;;;;;;2.90;0.73;;;7.00;99.90;;;;;;4934682;29;20024;-79
2023/11/28 00:05:01;;;;;;;2.05;0.60;;;;;;;;;;4948858;28;20059;-80
2023/11/28 00:07:30;;;;;;;0.80;0.55;;;6.80;99.90;;;;;;4949962;28;20114;-79
2023/11/28 00:09:56;;;;;;;0.75;0.40;;;6.90;99.90;;;;;;4950113;29;20102;-79
2023/11/28 00:12:22;;;;;;;1.27;1.17;;;7.00;99.90;;;;;;4948878;29;20039;-78
2023/11/28 00:14:49;;;;;;;1.20;0.80;;;;;;;;;;4947331;29;20035;-79
2023/11/28 00:17:15;;;;;;;0.38;0.38;;;;;;;;;;4949618;29;20051;-79
2023/11/28 00:19:41;;;;;;;2.05;0.52;;;;;;;;;;4948986;29;20480;-79
2023/11/28 00:22:06;;;;;;;2.05;0.60;;;6.80;99.90;;;;;;4950140;28;20027;-79
2023/11/28 00:24:32;;;;;;;0.63;0.43;;;;;;;;;;4949107;28;20099;-79
2023/11/28 00:26:58;;;;;;;0.55;0.50;;;;;;;;;;4949103;29;20015;-79
2023/11/28 00:29:25;;;;;;;0.85;0.60;;;;;;;;;;4948828;29;20521;-79
2023/11/28 00:31:51;;;;;;;0.63;0.63;;;;;;;;;;4948738;29;20114;-79
2023/11/28 00:34:17;;;;;;;1.10;0.80;;;;;;;;;;4931144;29;20069;-79
2023/11/28 00:36:43;;;;;;;0.30;0.30;;;6.40;99.90;;;;;;4949365;29;20051;-79
2023/11/28 00:39:09;;;;;;;0.50;0.50;;;;;;;;;;4949270;29;20023;-79
2023/11/28 00:41:35;;;;;;;1.60;0.70;;;6.50;99.90;;;;;;4949173;29;20031;-79
2023/11/28 00:44:00;;;;;;;3.45;0.85;;;6.20;99.90;;;;;;4949480;29;20521;-79
2023/11/28 00:46:27;;;;;;;0.50;0.50;;;;;;;;;;4948318;29;20078;-79
2023/11/28 00:48:52;;;;;;;1.25;0.60;;;6.10;99.90;;;;;;4949466;29;20039;-79
2023/11/28 00:51:18;;;;;;;0.47;0.47;;;;;;;;;;4947526;28;20047;-79
2023/11/28 00:53:44;;;;;;;0.82;0.60;;;;;;;;;;4948610;29;20082;-79
2023/11/28 00:56:18;;;;;;;1.95;0.63;;;6.80;99.90;;;;;;4948049;29;20066;-79
2023/11/28 00:58:44;;;;;;;0.47;0.47;;;;;;;;;;4947348;29;20482;-79
2023/11/28 01:01:12;;;;;;;0.93;0.82;;;6.50;99.90;;;;;;4947419;29;20023;-79
2023/11/28 01:03:38;;;;;;;;;;;6.50;99.90;;;;;;4949890;28;20968;-79
2023/11/28 01:06:04;;;;;;;2.00;0.60;;;;;;;;;;4948755;28;20001;-79
2023/11/28 01:08:30;;;;;;;0.60;0.60;;;;;;;;;;4947958;28;20086;-79
2023/11/28 01:10:56;;;;;;;1.23;1.10;;;6.60;99.90;;;;;;4949420;28;20041;-79
2023/11/28 01:13:22;;;;;;;0.90;0.60;;;;;;;;;;4948286;29;20039;-79
2023/11/28 01:15:48;;;;;;;2.78;0.70;;;;;;;;;;4947836;29;20041;-79
2023/11/28 01:18:14;;;;;;;0.35;0.35;;;;;;;;;;4947748;29;20416;-79
2023/11/28 01:20:41;;;;;;;1.08;0.63;;;6.10;99.90;;;;;;4945878;28;20034;-79
2023/11/28 01:23:07;;;;;;;2.15;1.00;;;;;;;;;;4948000;28;20019;-79
2023/11/28 01:25:33;;;;;;;0.60;0.45;;;6.30;99.90;;;;;;4946999;28;20031;-79
2023/11/28 01:27:58;;;;;;;1.05;0.60;;;6.40;99.90;;;;;;4947401;29;20459;-79
2023/11/28 01:30:24;;;;;;;0.75;0.68;;;;;;;;;;4946841;28;20502;-79
2023/11/28 01:32:50;;;;;;;0.75;0.50;;;;;;;;;;4948035;29;20039;-79
2023/11/28 01:35:16;;;;;;;1.83;0.50;;;;;;;;;;4947496;29;20432;-78
2023/11/28 01:37:42;;;;;;;0.38;0.38;;;;;;;;;;4947819;28;20023;-79
2023/11/28 01:40:10;;;;;;;0.60;0.60;;;;;;;;;;4947528;29;20031;-79
2023/11/28 01:42:35;;;;;;;;;;;6.50;99.90;;;;;;4948487;29;20432;-79
2023/11/28 01:45:01;;;;;;;1.83;0.60;;;6.60;99.90;;;;;;4946402;29;19914;-79
2023/11/28 01:47:27;;;;;;;0.50;0.50;;;;;;;;;;4947481;29;20503;-79
2023/11/28 01:49:53;;;;;;;2.33;0.43;;;;;;;;;;4947922;29;20040;-78
2023/11/28 01:52:20;;;;;;;0.60;0.60;;;6.50;99.90;;;;;;4948019;29;20019;-79
2023/11/28 01:54:46;;;;;;;4.90;0.87;;;;;;;;;;4946356;28;20031;-79
2023/11/28 01:57:12;;;;;;;0.70;0.70;;;;;;;;;;4947395;29;20031;-79
2023/11/28 01:59:40;;;;;;;0.50;0.50;;;6.80;99.90;;;;;;4946981;29;20535;-79
2023/11/28 02:02:07;;;;;;;1.75;0.40;;;6.80;99.90;;;;;;4948071;29;20016;-79
2023/11/28 02:04:33;;;;;;;1.37;0.50;;;;;;;;;;4947413;28;20035;-79
2023/11/28 02:06:59;;;;;;;0.57;0.57;;;;;;;;;;4947160;29;20448;-79
2023/11/28 02:09:26;;;;;;;0.90;0.75;;;7.00;99.90;;;;;;4947514;29;20400;-79
2023/11/28 02:11:52;;;;;;;0.37;0.37;;;;;;;;;;4946780;29;20021;-79
2023/11/28 02:14:18;;;;;;;7.13;0.57;;;;;;;;;;4947618;29;20251;-79
2023/11/28 02:16:44;;;;;;;1.25;0.40;;;7.00;99.90;;;;;;4931927;29;20393;-78
2023/11/28 02:19:10;;;;;;;0.68;0.52;;;;;;;;;;4945542;29;20058;-79
2023/11/28 02:21:36;;;;;;;0.68;0.47;;;;;;;;;;4947764;29;20536;-79
2023/11/28 02:24:04;;;;;;;7.78;0.57;;;6.80;99.90;;;;;;4947149;29;20038;-79
2023/11/28 02:26:30;;;;;;;;;;;7.00;99.90;;;;;;4948199;29;20030;-78
2023/11/28 02:28:56;;;;;;;0.30;0.30;;;7.00;99.90;;;;;;4945910;28;19923;-79
2023/11/28 02:31:23;;;;;;;0.40;0.40;;;5.90;99.90;;;;;;4946640;29;20405;-78
2023/11/28 02:33:49;;;;;;;0.40;0.40;;;7.00;99.90;;;;;;4947205;29;20396;-78
2023/11/28 02:36:15;;;;;;;0.70;0.50;;;7.10;99.90;;;;;;4945461;29;20421;-79
2023/11/28 02:38:41;;;;;;;0.30;0.30;;;;;;;;;;4946153;29;20531;-78
2023/11/28 02:41:07;;;;;;;0.40;0.40;;;7.00;99.90;;;;;;4946805;29;20050;-79
2023/11/28 02:43:33;;;;;;;0.30;0.30;;;7.00;99.90;;;;;;4946088;29;20045;-78
2023/11/28 02:45:59;;;;;;;0.30;0.30;;;;;;;;;;4944061;29;20035;-79
2023/11/28 02:48:24;;;;;;;0.30;0.30;;;6.80;99.90;;;;;;4945452;29;20487;-79
2023/11/28 02:50:50;;;;;;;0.35;0.32;;;;;;;;;;4946059;29;20109;-78
2023/11/28 02:53:19;;;;;;;0.30;0.30;;;;;;;;;;4946467;29;20039;-79
2023/11/28 02:55:45;;;;;;;0.40;0.40;;;;;;;;;;4946022;29;20178;-78
2023/11/28 02:58:11;;;;;;;3.08;0.50;;;;;;;;;;4927989;29;20114;-78
2023/11/28 03:00:37;;;;;;;0.85;0.40;;;;;;;;;;4946754;29;20042;-79
2023/11/28 03:03:03;;;;;;;5.25;0.40;;;7.00;99.90;;;;;;4945033;29;20035;-78
2023/11/28 03:05:31;;;;;;;0.98;0.98;;;6.60;99.90;;;;;;4947308;28;20500;-78
2023/11/28 03:07:56;;;;;;;0.32;0.32;;;6.90;99.90;;;;;;4945427;29;20243;-79
2023/11/28 03:10:22;;;;;;;0.55;0.55;;;;;;;;;;4945603;29;20576;-79
2023/11/28 03:12:48;;;;;;;1.08;0.40;;;;;;;;;;4945420;29;20062;-78
2023/11/28 03:15:14;;;;;;;0.52;0.32;;;;;;;;;;4928354;29;20030;-78
2023/11/28 03:17:40;;;;;;;1.08;0.60;;;;;;;;;;4946937;29;20610;-79
2023/11/28 03:20:09;;;;;;;2.67;1.13;;;6.30;99.90;;;;;;4945607;29;20057;-79
2023/11/28 03:22:35;;;;;;;0.50;0.50;;;;;;;;;;4945864;28;20030;-79
2023/11/28 03:25:07;;;;;;;0.50;0.47;;;6.60;99.90;;;;;;4945013;29;20031;-78
2023/11/28 03:27:33;;;;;;;0.35;0.35;;;;;;;;;;4946291;29;20515;-78
2023/11/28 03:29:58;;;;;;;0.45;0.45;;;6.40;99.90;;;;;;4946164;28;20662;-78
2023/11/28 03:32:24;;;;;;;0.47;0.43;;;;;;;;;;4946242;28;20106;-79
2023/11/28 03:34:50;;;;;;;0.30;0.30;;;;;;;;;;4945797;29;20019;-79
2023/11/28 03:37:16;;;;;;;0.57;0.40;;;;;;;;;;4945193;29;20027;-78
2023/11/28 03:39:42;;;;;;;0.30;0.30;;;6.90;99.90;;;;;;4930146;29;20030;-78
2023/11/28 03:42:08;;;;;;;3.08;1.27;;;;;;;;;;4946708;29;20328;-79
2023/11/28 03:44:34;;;;;;;1.85;0.50;;;;;;;;;;4945734;29;20027;-78
2023/11/28 03:47:00;;;;;;;0.40;0.40;;;7.20;99.90;;;;;;4944280;29;20035;-79
2023/11/28 03:49:26;;;;;;;0.40;0.40;;;;;;;;;;4945634;29;20032;-78
2023/11/28 03:51:52;;;;;;;0.30;0.30;;;;;;;;;;4945304;29;20028;-79
2023/11/28 03:54:19;;;;;;;0.40;0.40;;;;;;;;;;4945606;29;20576;-79
2023/11/28 03:56:45;;;;;;;2.55;0.60;;;7.30;99.90;;;;;;4944761;29;20416;-79
2023/11/28 03:59:10;;;;;;;0.50;0.50;;;6.60;99.90;;;;;;4927130;29;20024;-78
2023/11/28 04:01:37;;;;;;;0.50;0.50;;;;;;;;;;4945124;29;20050;-78
2023/11/28 04:04:02;;;;;;;0.30;0.30;;;6.70;99.90;;;;;;4946185;28;20023;-79
2023/11/28 04:06:29;;;;;;;0.30;0.30;;;;;;;;;;4944689;29;20058;-79
2023/11/28 04:08:55;;;;;;;0.45;0.45;;;;;;;;;;4943651;29;20420;-79
2023/11/28 04:11:21;;;;;;;0.30;0.30;;;;;;;;;;4945471;29;20035;-79
2023/11/28 04:13:47;;;;;;;0.50;0.50;;;;;;;;;;4945995;28;20023;-79
2023/11/28 04:16:17;;;;;;;0.63;0.50;;;6.50;99.90;;;;;;4945614;29;20385;-78
2023/11/28 04:18:45;;;;;;;0.35;0.35;;;6.50;99.90;;;;;;4945996;29;20037;-79
2023/11/28 04:21:15;;;;;;;0.63;0.40;;;6.50;99.90;;;;;;4945721;29;20066;-79
2023/11/28 04:23:43;;;;;;;0.82;0.63;;;6.40;99.90;;;;;;4945659;29;20106;-79
2023/11/28 04:26:09;;;;;;;0.40;0.40;;;;;;;;;;4945340;29;20031;-78
2023/11/28 04:28:35;;;;;;;0.30;0.30;;;;;;;;;;4945535;28;20409;-79
2023/11/28 04:31:01;;;;;;;1.02;0.80;;;6.50;99.90;;;;;;4945542;29;20035;-79
2023/11/28 04:33:28;;;;;;;0.40;0.40;;;;;;;;;;4945147;29;20611;-79
2023/11/28 04:35:54;;;;;;;0.50;0.50;;;;;;;;;;4944902;29;20027;-79
2023/11/28 04:38:20;;;;;;;0.40;0.40;;;;;;;;;;4945150;29;20079;-79
2023/11/28 04:40:46;;;;;;;0.30;0.30;;;;;;;;;;4944304;29;20023;-79
2023/11/28 04:43:11;;;;;;;1.65;0.82;;;6.40;99.90;;;;;;4947463;28;20027;-79
2023/11/28 04:45:37;;;;;;;4.10;0.50;;;;;;;;;;4948290;29;20420;-79
2023/11/28 04:48:03;;;;;;;0.28;0.28;;;6.40;99.90;;;;;;4948495;28;20489;-79
2023/11/28 04:50:29;;;;;;;0.30;0.30;;;;;;;;;;4949424;29;20073;-79
2023/11/28 04:52:55;;;;;;;0.70;0.70;;;6.40;99.90;;;;;;4947962;29;20032;-79
2023/11/28 04:55:21;;;;;;;1.17;0.52;;;;;;;;;;4948636;29;20050;-79
2023/11/28 04:57:46;;;;;;;0.60;0.60;;;6.40;99.90;;;;;;4947768;29;20036;-79
2023/11/28 05:00:13;;;;;;;0.40;0.40;;;;;;;;;;4948403;29;20399;-79
2023/11/28 05:02:39;;;;;;;0.38;0.38;;;;;;;;;;4931218;29;20400;-78
2023/11/28 05:05:07;;;;;;;0.30;0.30;;;6.10;99.90;;;;;;4947552;28;20134;-79
2023/11/28 05:07:33;;;;;;;0.50;0.50;;;6.20;99.90;;;;;;4947769;29;20027;-79
2023/11/28 05:09:59;;;;;;;0.40;0.40;;;;;;;;;;4948155;29;20031;-78
2023/11/28 05:12:25;;;;;;;1.10;0.60;;;6.10;99.90;;;;;;4948898;29;20118;-79
2023/11/28 05:14:51;;;;;;;0.40;0.40;;;;;;;;;;4946903;29;20168;-79
2023/11/28 05:17:18;;;;;;;0.68;0.40;;;;;;;;;;4948109;29;20114;-79
2023/11/28 05:19:43;;;;;;;7.25;0.40;;;5.90;99.90;;;;;;4947857;29;20127;-79
2023/11/28 05:22:09;;;;;;;0.50;0.50;;;;;;;;;;4948734;29;20695;-79
2023/11/28 05:24:35;;;;;;;0.90;0.50;;;;;;;;;;4947457;29;20091;-79
2023/11/28 05:27:01;;;;;;;0.45;0.45;;;;;;;;;;4947757;29;20042;-79
2023/11/28 05:29:27;;;;;;;0.40;0.40;;;;;;;;;;4947452;28;20054;-80
2023/11/28 05:31:53;;;;;;;0.82;0.50;;;;;;;;;;4930864;29;20491;-79
2023/11/28 05:34:20;;;;;;;0.45;0.40;;;;;;;;;;4948182;28;20515;-79
2023/11/28 05:36:45;;;;;;;0.38;0.38;;;;;;;;;;4946978;29;20039;-79
2023/11/28 05:39:12;;;;;;;0.70;0.57;;;3.10;99.90;;;;;;4946916;29;20035;-79
2023/11/28 05:41:38;;;;;;;1.00;0.60;;;;;;;;;;4947693;29;20074;-80
2023/11/28 05:44:05;;;;;;;0.45;0.45;;;6.10;99.90;;;;;;4946768;29;20096;-78
2023/11/28 05:46:31;;;;;;;2.25;1.20;;;;;;;;;;4947122;29;20464;-79
2023/11/28 05:48:57;;;;;;;0.50;0.50;;;;;;;;;;4947333;29;20043;-79
2023/11/28 05:51:23;;;;;;;0.50;0.45;;;6.10;99.90;;;;;;4948741;28;20027;-79
2023/11/28 05:53:49;;;;;;;0.40;0.40;;;;;;;;;;4946261;28;20074;-78
2023/11/28 05:56:15;;;;;;;0.65;0.55;;;;;;;;;;4947971;29;20098;-79
2023/11/28 05:58:41;;;;;;;1.77;0.52;;;;;;;;;;4947230;29;20055;-79
2023/11/28 06:01:07;;;;;;;0.50;0.50;;;;;;;;;;4947999;29;20035;-79
2023/11/28 06:03:33;;;;;;;0.82;0.63;;;;;;;;;;4931289;29;20457;-79
2023/11/28 06:05:59;;;;;;;0.50;0.50;;;6.00;99.90;;;;;;4947061;28;20037;-79
2023/11/28 06:08:25;;;;;;;0.40;0.40;;;;;;;;;;4947524;29;20027;-79
2023/11/28 06:10:50;;;;;;;0.60;0.60;;;5.80;99.90;;;;;;4946677;29;20126;-79
2023/11/28 06:13:17;;;;;;;1.42;0.77;;;;;;;;;;4947303;29;20034;-78
2023/11/28 06:15:42;;;;;;;0.40;0.40;;;5.50;99.90;;;;;;4946899;29;20401;-79
2023/11/28 06:18:10;;;;;;;1.48;0.60;;;;;;;;;;4947722;29;20058;-79
2023/11/28 06:20:36;;;;;;;1.08;0.93;;;;;;;;;;4942141;28;20037;-78
2023/11/28 06:23:03;;;;;;;0.52;0.52;;;;;;;;;;4945380;29;20548;-79
2023/11/28 06:25:30;;;;;;;0.75;0.63;;;;;;;;;;4944640;29;20722;-79
2023/11/28 06:27:55;;;;;;;0.50;0.50;;;5.70;99.90;;;;;;4944453;29;20260;-78
2023/11/28 06:30:21;;;;;;;0.40;0.40;;;6.20;99.90;;;;;;4943054;28;20039;-79
2023/11/28 06:32:47;;;;;;;0.75;0.45;;;;;;;;;;4944787;29;20027;-79
2023/11/28 06:35:13;;;;;;;2.17;0.98;;;;;;;;;;4943458;29;20141;-79
2023/11/28 06:37:39;;;;;;;0.95;0.70;;;5.80;99.90;;;;;;4929780;29;20078;-79
2023/11/28 06:40:05;;;;;;;0.90;0.90;;;5.60;99.90;;;;;;4943818;28;20040;-79
2023/11/28 06:42:31;;;;;;;0.70;0.70;;;;;;;;;;4945046;29;20036;-79
2023/11/28 06:44:57;;;;;;;5.45;1.42;;;5.50;99.90;;;;;;4943522;29;20031;-80
2023/11/28 06:47:23;;;;;;;1.73;1.13;;;;;;;;;;4948052;29;20047;-87
2023/11/28 06:49:49;;;;;;;1.25;0.88;;;5.10;99.90;;;;;;4947272;29;20596;-80
2023/11/28 06:52:17;;;;;;;0.60;0.57;;;;;;;;;;4946956;29;20083;-80
2023/11/28 06:54:43;;;;;;;1.27;0.95;;;;;;;;;;4946489;29;20023;-80
2023/11/28 06:57:09;;;;;;;0.70;0.70;;;;;;;;;;4945115;29;20037;-80
2023/11/28 06:59:36;;;;;;;1.10;1.02;;;5.00;99.90;;;;;;4927943;29;20421;-81
2023/11/28 07:02:02;;;;;;;0.70;0.63;;;;;;;;;;4945273;29;20213;-81
2023/11/28 07:04:28;;;;;;;2.25;0.98;;;;;;;;;;4944460;28;20282;-81
2023/11/28 07:06:54;;;;;;;1.00;0.98;;;;;;;;;;4945002;28;20061;-81
2023/11/28 07:09:21;;;;;;;1.53;1.00;;;;;;;;;;4943987;28;20037;-80
2023/11/28 07:11:51;;;;;;;1.40;1.00;;;;;;;;;;4944364;29;20695;-81
2023/11/28 07:14:17;;;;;;;0.70;0.65;;;;;;;;;;4944426;29;20015;-80
2023/11/28 07:16:43;;;;;;;1.75;1.02;;;;;;;;;;4944549;29;20429;-81
2023/11/28 07:19:09;;;;;;;0.70;0.70;;;;;;;;;;4944511;28;21246;-77
2023/11/28 07:21:36;;;;;;;0.65;0.65;;;;;;;;;;4944541;29;20497;-78
2023/11/28 07:24:02;;;;;;;1.38;1.23;;;;;;;;;;4929016;29;20031;-76
2023/11/28 07:26:28;;;;;;;1.23;1.13;;;;;;;;;;4943866;28;20039;-84
2023/11/28 07:28:54;;;;;;;3.70;1.13;;;;;;;;;;4924522;28;20060;-86
2023/11/28 07:31:20;;;;;;;1.20;1.10;;;;;;;;;;4933702;28;20078;-84
2023/11/28 07:33:46;;;;;;;2.53;1.23;;;;;;;;;;4944423;28;20027;-86
2023/11/28 07:36:12;;;;;;;3.83;1.88;;;5.20;99.90;;;;;;4943889;29;20035;-80
2023/11/28 07:38:38;;;;;;;1.98;1.35;;;;;;;;;;4939717;29;20221;-84
2023/11/28 07:41:05;;;;;;;3.53;1.33;;;5.40;99.90;;;;;;4943191;28;20712;-83
2023/11/28 07:43:32;;;;;;;1.17;0.80;;;;;;;;;;4941693;29;20042;-83
2023/11/28 07:45:58;;;;;;;26.75;9.95;;;5.80;99.90;;;;;;4940799;28;20024;-84
2023/11/28 07:48:24;;;;;;;27.70;8.48;;;;;;;;;;4936057;29;20517;-84
2023/11/28 07:50:50;;;;;;;4.47;1.73;;;;;;;;;;4941031;28;20039;-84
2023/11/28 07:53:16;;;;;;;3.35;1.33;;;;;;;;;;4941299;29;20030;-83
2023/11/28 07:55:42;;;;;;;1.73;1.23;;;;;;;;;;4940880;29;20051;-84
2023/11/28 07:58:09;;;;;;;15.98;3.33;;;5.90;99.90;;;;;;4937642;29;20019;-83
2023/11/28 08:00:35;;;;;;;13.82;6.55;;;6.00;99.90;;;;;;4942940;29;20023;-83
2023/11/28 08:03:02;;;;;;;14.20;8.65;;;;;;;;;;4941091;28;20038;-83
2023/11/28 08:05:28;;;;;;;7.18;3.58;;;;;;;;;;4940471;28;20027;-83
2023/11/28 08:07:54;;;;;;;4.57;2.85;;;;;;;;;;4934843;29;20039;-83
2023/11/28 08:10:22;;;;;;;2.25;2.05;;;6.00;99.90;;;;;;4943340;29;20042;-83
2023/11/28 08:12:48;;;;;;;4.63;2.90;;;;;;;;;;4940770;29;20058;-83
2023/11/28 08:15:14;;;;;;;2.40;2.20;;;;;;;;;;4943751;28;20035;-84
2023/11/28 08:17:40;;;;;;;4.55;1.27;;;;;;;;;;4936127;29;20470;-83
2023/11/28 08:20:08;;;;;;;2.45;1.20;;;6.30;96.80;;;;;;4945494;29;20085;-84
2023/11/28 08:22:34;;;;;;;1.23;1.13;;;;;;;;;;4945831;29;20071;-85
2023/11/28 08:25:03;;;;;;;1.45;1.02;;;;;;;;;;4943955;28;20425;-78
2023/11/28 08:27:29;;;;;;;3.55;1.40;;;;;;;;;;4939592;29;20520;-78
2023/11/28 08:29:55;;;;;;;1.02;1.00;;;;;;;;;;4944127;29;20436;-79
2023/11/28 08:32:21;;;;;;;2.75;0.90;;;7.00;97.40;;;;;;4943314;29;20330;-76
2023/11/28 08:34:47;;;;;;;0.68;0.68;;;;;;;;;;4943640;29;20625;-77
2023/11/28 08:37:13;;;;;;;1.30;1.20;;;;;;;;;;4936990;28;20042;-77
2023/11/28 08:39:39;;;;;;;0.80;0.70;;;;;;;;;;4938970;29;20043;-76
2023/11/28 08:42:05;;;;;;;1.50;1.13;;;;;;;;;;4943428;29;20098;-77
2023/11/28 08:44:32;;;;;;;1.25;1.00;;;;;;;;;;4943169;29;20424;-77
2023/11/28 08:46:58;;;;;;;0.95;0.82;;;;;;;;;;4944845;29;20219;-76
2023/11/28 08:49:24;;;;;;;0.88;0.80;;;;;;;;;;4935592;28;20034;-77
2023/11/28 08:51:50;;;;;;;0.70;0.70;;;;;;;;;;4944507;29;20031;-77
2023/11/28 08:54:16;;;;;;;6.80;1.45;;;;;;;;;;4943602;29;20059;-76
2023/11/28 08:56:42;;;;;;;1.92;1.27;;;;;;;;;;4945835;29;20020;-77
2023/11/28 08:59:08;;;;;;;1.25;1.15;;;;;;;;;;4934858;29;20023;-77
2023/11/28 09:01:35;;;;;;;1.15;1.10;;;;;;;;;;4944849;28;20027;-77
2023/11/28 09:04:01;;;;;;;4.95;2.47;;;;;;;;;;4945655;28;20034;-77
2023/11/28 09:06:27;;;;;;;13.93;4.32;;;;;;;;;;4947006;29;20102;-77
2023/11/28 09:08:53;;;;;;;3.03;2.05;;;;;;;;;;4937103;29;20026;-80
2023/11/28 09:11:19;;;;;;;2.33;2.08;;;14.80;73.10;;;;;;4944400;29;20035;-78
2023/11/28 09:13:45;;;;;;;1.50;1.40;;;;;;;;;;4943387;28;20555;-79
2023/11/28 09:16:12;;;;;;;2.08;1.40;;;14.40;63.30;;;;;;4944494;29;20412;-78
2023/11/28 09:18:41;;;;;;;0.70;0.60;;;13.50;60.20;;;;;;4937636;29;20536;-77
2023/11/28 09:21:08;;;;;;;1.20;0.90;;;11.80;72.20;;;;;;4945247;29;20408;-77
2023/11/28 09:23:34;;;;;;;1.85;1.15;;;11.00;68.80;;;;;;4941171;29;20397;-77
2023/11/28 09:26:00;;;;;;;1.35;1.15;;;;;;;;;;4943052;28;20062;-77
2023/11/28 09:28:26;;;;;;;2.85;1.50;;;;;;;;;;4933937;28;20837;-82
2023/11/28 09:30:53;;;;;;;4.10;1.45;;;;;;;;;;4945216;28;20101;-78
2023/11/28 09:33:19;;;;;;;1.40;1.30;;;;;;;;;;4944197;29;20019;-78
2023/11/28 09:35:45;;;;;;;2.80;1.58;;;;;;;;;;4943643;28;20536;-78
2023/11/28 09:38:11;;;;;;;2.83;0.90;;;8.20;75.10;;;;;;4935973;29;20042;-78
2023/11/28 09:40:38;;;;;;;1.17;1.08;;;;;;;;;;4944874;29;20027;-78
2023/11/28 09:43:04;;;;;;;1.40;1.13;;;;;;;;;;4944233;29;20023;-79
2023/11/28 09:45:33;;;;;;;0.95;0.80;;;8.00;92.30;;;;;;4944771;29;20053;-79
2023/11/28 09:48:06;;;;;;;1.10;1.00;;;7.80;80.30;;;;;;4937741;28;20031;-77
2023/11/28 09:50:32;;;;;;;7.97;1.65;;;;;;;;;;4942101;29;20059;-78
2023/11/28 09:52:58;;;;;;;17.67;6.40;;;;;;;;;;4945393;29;20401;-78
2023/11/28 09:55:25;;;;;;;6.50;2.30;;;;;;;;;;4943035;29;20561;-78
2023/11/28 09:57:51;;;;;;;2.75;1.80;;;;;;;;;;4938186;29;20027;-78
2023/11/28 10:00:19;;;;;;;3.25;1.65;;;8.00;81.20;;;;;;4943440;28;20062;-89
2023/11/28 10:02:46;;;;;;;8.32;1.92;;;;;;;;;;4946735;29;20057;-85
2023/11/28 10:05:12;;;;;;;1.00;1.00;;;;;;;;;;4942879;28;20236;-78
2023/11/28 10:07:42;;;;;;;1.95;1.58;;;11.90;66.60;;;;;;4940201;29;20046;-78
2023/11/28 10:10:09;;;;;;;2.30;1.17;;;11.30;65.30;;;;;;4924487;29;20031;-79
2023/11/28 10:12:38;;;;;;;1.25;0.88;;;10.80;66.30;;;;;;4945113;28;20059;-79
2023/11/28 10:15:08;;;;;;;1.80;1.20;;;10.10;67.50;;;;;;4942684;29;20057;-80
2023/11/28 10:17:34;;;;;;;2.85;1.67;;;;;;;;;;4937838;29;20073;-80
2023/11/28 10:20:06;;;;;;;2.03;1.42;;;9.30;72.70;;;;;;4940570;29;20035;-79
2023/11/28 10:22:33;;;;;;;1.27;1.17;;;;;;;;;;4944577;29;20027;-79
2023/11/28 10:24:59;;;;;;;2.65;1.00;;;;;;;;;;4940757;28;20110;-79
2023/11/28 10:27:28;;;;;;;1.50;1.40;;;;;;;;;;4922219;29;20075;-79
2023/11/28 10:29:58;;;;;;;3.83;1.35;;;8.10;77.30;;;;;;4920881;29;20397;-79
2023/11/28 10:32:30;;;;;;;4.45;1.42;;;7.90;78.20;;;;;;4943566;29;20035;-79
2023/11/28 10:34:56;;;;;;;4.00;1.40;;;;;;;;;;4941941;28;20412;-79
2023/11/28 10:37:23;;;;;;;5.03;2.10;;;;;;;;;;4940451;29;20027;-79
2023/11/28 10:39:53;;;;;;;2.75;1.85;;;7.60;83.30;;;;;;4936839;28;20508;-79
2023/11/28 10:42:19;;;;;;;5.88;3.08;;;7.70;90.60;;;;;;4944068;29;20082;-80
2023/11/28 10:44:45;;;;;;;5.95;2.42;;;;;;;;;;4941354;29;20031;-79
2023/11/28 10:47:12;;;;;;;2.55;1.58;;;;;;;;;;4940700;28;20024;-79
2023/11/28 10:49:38;;;;;;;5.70;2.70;;;;;;;;;;4936122;29;20032;-79
2023/11/28 10:52:05;;;;;;;1.83;1.60;;;8.10;91.10;;;;;;4944599;29;20590;-79
2023/11/28 10:54:33;;;;;;;1.55;1.45;;;8.10;84.10;;;;;;4940428;29;20015;-79
2023/11/28 10:57:03;;;;;;;1.88;1.27;;;8.00;82.30;;;;;;4942808;29;20375;-79
2023/11/28 10:59:36;;;;;;;2.20;1.42;;;8.30;81.90;;;;;;4933742;28;20094;-79
2023/11/28 11:02:04;;;;;;;2.53;1.58;;;8.50;81.20;;;;;;4943269;29;20047;-80
2023/11/28 11:04:30;;;;;;;4.20;1.80;;;;;;;;;;4942029;29;20023;-78
2023/11/28 11:06:57;;;;;;;1.55;1.25;;;;;;;;;;4940593;29;20031;-80
2023/11/28 11:09:24;;;;;;;1.80;1.70;;;12.40;61.80;;;;;;4934768;29;20118;-80
2023/11/28 11:11:51;;;;;;;1.63;1.52;;;12.00;64.50;;;;;;4943626;28;20413;-79
2023/11/28 11:14:35;;;;;;;1.83;1.73;;;12.20;62.00;;;;;;4942039;29;20595;-80
2023/11/28 11:17:19;;;;;;;2.45;1.30;;;11.00;61.40;;;;;;4942485;29;20094;-80
2023/11/28 11:19:47;;;;;;;1.65;1.55;;;12.80;61.80;;;;;;4936068;29;20035;-80
2023/11/28 11:22:17;;;;;;;1.95;1.80;;;13.10;61.30;;;;;;4944375;28;20145;-79
2023/11/28 11:24:43;;;;;;;1.85;1.73;;;;;;;;;;4924967;29;20432;-80
2023/11/28 11:27:09;;;;;;;1.45;1.10;;;;;;;;;;4942522;29;20027;-79
2023/11/28 11:29:40;;;;;;;1.42;1.08;;;;;;;;;;4936085;29;20047;-80
2023/11/28 11:32:14;;;;;;;1.20;1.10;;;11.90;59.90;;;;;;4924076;29;20412;-80
2023/11/28 11:34:43;;;;;;;1.27;1.00;;;11.80;63.00;;;;;;4941539;28;20530;-79
2023/11/28 11:37:09;;;;;;;1.65;0.85;;;;;;;;;;4940094;29;20126;-79
2023/11/28 11:39:38;;;;;;;1.63;1.17;;;10.10;74.10;;;;;;4936216;29;20074;-80
2023/11/28 11:42:11;;;;;;;2.70;2.50;;;9.80;66.80;;;;;;4941391;29;20043;-80
2023/11/28 11:45:02;;;;;;;1.30;1.17;;;;;;;;;;4942048;29;20026;-80
2023/11/28 11:47:29;;;;;;;1.48;1.20;;;9.40;74.00;;;;;;4930534;28;20051;-79
2023/11/28 11:49:57;;;;;;;1.63;1.08;;;8.90;69.00;;;;;;4938094;29;20039;-80
2023/11/28 11:52:27;;;;;;;0.80;0.80;;;;;;;;;;4947110;28;20062;-79
2023/11/28 11:55:02;;;;;;;4.60;1.75;;;8.40;71.40;;;;;;4948366;28;20030;-79
2023/11/28 11:57:28;;;;;;;3.88;2.25;;;;;;;;;;4925998;28;20058;-79
2023/11/28 11:59:54;;;;;;;1.90;1.70;;;;;;;;;;4944664;29;20030;-80
2023/11/28 12:02:21;;;;;;;1.58;1.48;;;;;;;;;;4946544;28;20023;-79
2023/11/28 12:04:48;;;;;;;3.25;2.33;;;;;;;;;;4950444;28;20033;-79
2023/11/28 12:07:15;;;;;;;1.55;1.10;;;;;;;;;;4945090;29;20458;-79
2023/11/28 12:09:42;;;;;;;1.20;1.10;;;8.50;72.70;;;;;;4941622;28;20114;-79
2023/11/28 12:12:11;;;;;;;1.73;1.30;;;8.70;71.90;;;;;;4946042;28;20035;-80
2023/11/28 12:14:38;;;;;;;2.13;1.92;;;;;;;;;;4949069;28;20041;-80
2023/11/28 12:17:04;;;;;;;6.97;1.85;;;;;;;;;;4945960;29;20054;-79
2023/11/28 12:19:32;;;;;;;15.10;4.65;;;8.70;73.30;;;;;;4942235;28;20023;-79
2023/11/28 12:21:59;;;;;;;15.07;7.22;;;;;;;;;;4945157;28;20464;-79
2023/11/28 12:24:25;;;;;;;9.07;4.82;;;;;;;;;;4948674;28;20405;-88
2023/11/28 12:26:51;;;;;;;1.40;1.30;;;;;;;;;;4947948;28;20041;-85
2023/11/28 12:29:17;;;;;;;1.63;1.45;;;;;;;;;;4942011;28;20047;-85
2023/11/28 12:31:43;;;;;;;1.92;1.50;;;;;;;;;;4948582;28;20055;-87
2023/11/28 12:34:10;;;;;;;1.25;1.10;;;;;;;;;;4949364;28;20519;-85
2023/11/28 12:36:36;;;;;;;1.88;1.33;;;;;;;;;;4947111;29;20031;-78
2023/11/28 12:39:05;;;;;;;1.95;1.20;;;;;;;;;;4940190;28;20370;-78
2023/11/28 12:41:37;;;;;;;1.50;1.25;;;8.10;75.00;;;;;;4947946;29;20381;-78
2023/11/28 12:44:04;;;;;;;1.42;1.08;;;8.20;83.60;;;;;;4949219;29;20625;-78
2023/11/28 12:46:32;;;;;;;1.75;1.50;;;;;;;;;;4945591;28;20520;-78
2023/11/28 12:48:58;;;;;;;1.58;1.33;;;;;;;;;;4940351;29;20118;-78
2023/11/28 12:51:24;;;;;;;7.63;2.43;;;;;;;;;;4946786;29;20027;-78
2023/11/28 12:53:51;;;;;;;6.55;2.67;;;;;;;;;;4949874;28;20038;-77
2023/11/28 12:56:17;;;;;;;5.68;3.20;;;;;;;;;;4946956;29;20101;-77
2023/11/28 12:58:43;;;;;;;14.32;4.85;;;;;;;;;;4942193;28;20107;-83
2023/11/28 13:01:09;;;;;;;13.02;3.83;;;;;;;;;;4946563;29;20039;-84
2023/11/28 13:03:36;;;;;;;9.18;4.22;;;;;;;;;;4946916;28;20024;-83
2023/11/28 13:06:02;;;;;;;13.25;6.03;;;;;;;;;;4944528;29;20035;-87
2023/11/28 13:08:29;;;;;;;13.90;5.78;;;;;;;;;;4937051;28;20039;-78
2023/11/28 13:10:55;;;;;;;10.40;4.72;;;;;;;;;;4943588;29;20053;-78
2023/11/28 13:13:21;;;;;;;24.95;7.47;;;11.40;74.70;;;;;;4945542;29;20102;-78
2023/11/28 13:15:47;;;;;;;4.88;2.33;;;10.90;71.80;;;;;;4945439;29;20603;-78
2023/11/28 13:18:14;;;;;;;8.32;2.85;;;;;;;;;;4936348;29;20038;-79
2023/11/28 13:20:40;;;;;;;56.40;12.88;;;;;;;;;;4943946;28;20142;-79
2023/11/28 13:23:06;;;;;;;16.13;5.10;;;;;;;;;;4943817;29;20140;-79
2023/11/28 13:25:33;;;;;;;9.38;2.30;;;;;;;;;;4944965;29;20167;-79
2023/11/28 13:28:01;;;;;;;8.40;2.43;;;;;;;;;;4934029;29;20140;-80
2023/11/28 13:30:27;;;;;;;30.00;7.70;;;;;;;;;;4943626;28;20317;-79
2023/11/28 13:32:55;;;;;;;1.70;1.30;;;;;;;;;;4942024;28;20493;-79
2023/11/28 13:35:21;;;;;;;21.73;8.25;;;;;;;;;;4945420;28;20035;-80
2023/11/28 13:37:47;;;;;;;14.32;4.78;;;;;;;;;;4937783;29;20027;-80
2023/11/28 13:40:14;;;;;;;11.85;3.92;;;;;;;;;;4941904;29;20034;-79
2023/11/28 13:42:40;;;;;;;8.85;3.53;;;;;;;;;;4943681;29;20551;-79
2023/11/28 13:45:07;;;;;;;10.40;2.65;;;;;;;;;;4944629;28;20680;-79
2023/11/28 13:47:33;;;;;;;0.75;0.73;;;;;;;;;;4939946;29;20038;-80
2023/11/28 13:50:00;;;;;;;2.00;1.58;;;;;;;;;;4941180;29;20073;-79
2023/11/28 13:52:25;;;;;;;1.75;1.33;;;8.20;90.50;;;;;;4943676;29;20015;-79
2023/11/28 13:54:56;;;;;;;2.75;1.25;;;;;;;;;;4943747;29;20067;-79
2023/11/28 13:57:22;;;;;;;1.73;1.25;;;;;;;;;;4932751;28;20119;-79